MST,Max TemperatureF,Mean TemperatureF,Min TemperatureF,Max Dew PointF,MeanDew PointF,Min DewpointF,Max Humidity, Mean Humidity, Min Humidity, Max Sea Level PressureIn, Mean Sea Level PressureIn, Min Sea Level PressureIn, Max VisibilityMiles, Mean VisibilityMiles, Min VisibilityMiles, Max Wind SpeedMPH, Mean Wind SpeedMPH, Max Gust SpeedMPH,PrecipitationIn, CloudCover, Events, WindDirDegrees
2012-12-1,57,42,28,25,24,21,72,48,18,30.22,30.16,30.09,10,10,10,9,5,,0.00,0,,74
2012-12-2,61,46,32,26,22,18,70,44,11,30.22,30.10,29.99,10,10,10,13,7,,0.00,0,,85
2012-12-3,57,44,32,34,27,19,73,48,30,30.25,30.11,29.99,10,10,10,23,6,31,0.00,1,,323
2012-12-4,54,40,25,27,21,18,81,53,15,30.50,30.40,30.26,10,10,10,9,4,,0.00,0,,39
2012-12-5,59,44,28,23,20,17,67,45,16,30.39,30.22,30.05,10,10,10,9,6,,0.00,0,,73
2012-12-6,54,40,25,25,20,18,69,50,23,30.08,30.00,29.93,10,10,10,9,6,,0.00,2,Rain,69
2012-12-7,54,40,27,28,23,19,81,55,20,30.05,29.98,29.92,10,10,10,18,5,24,0.00,1,,279
2012-12-8,52,36,21,25,18,11,85,53,15,30.00,29.93,29.86,10,10,10,12,6,,0.00,0,,53
2012-12-9,36,28,19,25,4,-19,80,41,4,30.29,30.07,29.86,10,10,2,26,9,36,0.00,3,Snow,315
2012-12-10,35,22,8,6,-1,-9,46,32,12,30.37,30.22,30.12,10,10,10,17,8,23,0.00,0,,265
2012-12-11,37,24,12,13,10,5,68,46,18,30.22,30.15,30.08,10,10,10,24,6,28,0.00,0,,277
2012-12-12,45,30,15,11,9,7,68,40,11,30.21,30.12,30.04,10,10,10,12,8,,0.00,0,,96
2012-12-13,48,36,24,15,12,9,58,36,11,30.16,30.04,29.84,10,10,10,15,9,,0.00,0,,106
2012-12-14,43,38,32,36,31,15,100,82,21,29.98,29.75,29.65,10,9,2,20,10,31,0.12,8,Rain-Snow,135
2012-12-15,39,34,28,34,30,25,100,93,59,29.99,29.88,29.79,10,5,0,15,6,,0.28,8,Fog-Rain-Snow,45
2012-12-16,30,24,18,27,22,17,100,90,74,30.20,30.01,29.88,10,7,0,9,3,,0.00,5,Fog,265
2012-12-17,37,28,18,26,21,15,89,78,56,30.23,30.14,30.04,10,10,10,10,7,,0.00,3,,91
2012-12-18,39,33,27,31,28,24,92,79,51,30.01,29.86,29.62,10,10,10,10,5,,0.00,6,,89
2012-12-19,39,27,15,33,22,5,100,82,43,30.46,29.80,29.52,10,6,0,26,14,37,0.16,6,Fog-Rain-Snow,282
2012-12-20,27,14,1,11,4,-5,83,67,34,30.71,30.65,30.51,10,10,10,9,5,,0.00,0,,71
2012-12-21,39,24,9,22,13,6,88,71,35,30.58,30.47,30.32,10,10,10,10,7,,0.00,0,,96
2012-12-22,37,28,18,22,17,13,88,68,29,30.39,30.30,30.20,10,10,10,8,5,,0.00,0,,94
2012-12-23,45,33,21,24,21,14,82,66,32,30.27,30.18,30.06,10,10,10,12,7,,0.00,0,,93
2012-12-24,39,32,24,31,27,20,100,89,44,30.03,29.81,29.71,10,6,0,21,7,29,0.08,7,Fog-Snow,64
2012-12-25,32,26,19,21,16,12,85,69,47,30.21,30.10,29.80,10,10,10,26,12,38,0.00,0,,271
2012-12-26,41,31,21,26,20,15,88,67,35,30.16,29.92,29.75,10,10,10,12,7,,0.01,6,,74
2012-12-27,34,26,19,27,23,19,100,89,56,29.97,29.83,29.76,10,5,0,9,2,,0.02,7,Fog-Snow,325
2012-12-28,30,22,12,19,16,7,96,78,43,30.37,30.10,29.89,10,8,1,21,6,28,0.00,5,Snow,315
2012-12-29,32,21,10,15,10,5,84,63,33,30.45,30.32,30.17,10,10,10,14,7,,0.00,0,,98
2012-12-30,42,32,21,28,16,9,87,53,23,30.16,29.98,29.82,10,10,3,10,6,,0.02,4,Snow,97
2012-12-31,28,22,16,30,23,13,100,89,69,30.19,29.92,29.79,10,6,0,15,6,22,0.03,7,Fog-Snow,271